Time;durP1;ratioP1;P1;durP2;ratioP2;P2;SDS_P1;SDS_P2;PMS_P1;PMS_P2;Temp;Humidity;BMP_temperature;BMP_pressure;BME280_temperature;BME280_humidity;BME280_pressure;Samples;Min_cycle;Max_cycle;Signal;HPM_P1;HPM_P2
2021/04/26 00:01:39;;;;;;;12.50;7.03;;;;;;;9.06;73.58;97351.72;4957115;28;20023;-85
2021/04/26 00:04:04;;;;;;;16.02;7.30;;;;;;;8.94;76.13;97356.91;4938904;28;20038;-85
2021/04/26 00:06:30;;;;;;;12.18;6.93;;;;;;;8.83;76.27;97362.84;4942590;28;20054;-86
2021/04/26 00:08:55;;;;;;;16.75;7.47;;;;;;;8.66;78.50;97363.84;4936962;29;20027;-84
2021/04/26 00:11:21;;;;;;;11.48;7.70;;;;;;;8.52;78.59;97365.59;4953896;29;20041;-84
2021/04/26 00:13:47;;;;;;;14.85;7.43;;;;;;;8.42;79.25;97369.72;4937586;29;20483;-84
2021/04/26 00:16:13;;;;;;;15.00;7.80;;;;;;;8.35;79.10;97368.34;4939990;28;20039;-84
2021/04/26 00:18:39;;;;;;;16.88;8.55;;;;;;;8.36;79.73;97375.38;4943247;28;20442;-84
2021/04/26 00:21:04;;;;;;;14.07;8.10;;;;;;;8.27;80.62;97384.72;4940734;28;20379;-84
2021/04/26 00:23:30;;;;;;;12.50;7.65;;;;;;;8.21;80.17;97381.53;4940667;28;20027;-84
2021/04/26 00:25:55;;;;;;;16.95;8.30;;;;;;;8.15;81.68;97388.91;4940693;28;20058;-84
2021/04/26 00:28:21;;;;;;;12.85;7.50;;;;;;;8.17;81.12;97384.38;4956698;28;20483;-84
2021/04/26 00:30:47;;;;;;;15.73;8.40;;;;;;;8.02;81.82;97377.22;4940434;28;20031;-84
2021/04/26 00:33:12;;;;;;;13.30;8.38;;;;;;;8.01;81.32;97386.16;4940513;28;20110;-83
2021/04/26 00:35:38;;;;;;;13.13;7.45;;;;;;;7.91;81.37;97376.06;4950539;28;20526;-83
2021/04/26 00:38:03;;;;;;;18.42;8.35;;;;;;;7.93;82.78;97379.53;4954102;28;20023;-84
2021/04/26 00:40:29;;;;;;;14.95;8.45;;;;;;;8.09;81.07;97388.41;4944851;28;20031;-83
2021/04/26 00:42:55;;;;;;;12.60;7.55;;;;;;;8.18;81.32;97398.56;4940327;28;20026;-84
2021/04/26 00:45:23;;;;;;;13.40;7.97;;;;;;;8.06;81.80;97385.88;4940406;28;20035;-84
2021/04/26 00:47:49;;;;;;;11.60;8.00;;;;;;;7.99;81.59;97388.03;4968968;28;20558;-84
2021/04/26 00:50:29;;;;;;;13.45;8.52;;;;;;;7.99;81.82;97396.03;4955306;28;20065;-85
2021/04/26 00:52:56;;;;;;;15.30;8.20;;;;;;;7.98;82.23;97407.63;4966572;28;20093;-84
2021/04/26 00:55:26;;;;;;;17.50;8.35;;;;;;;7.87;83.29;97420.66;4921490;29;20050;-84
2021/04/26 00:57:52;;;;;;;21.35;9.40;;;;;;;7.78;83.65;97418.50;4922740;28;20396;-84
2021/04/26 01:00:18;;;;;;;14.93;8.68;;;;;;;7.84;83.68;97419.97;4934957;29;20070;-85
2021/04/26 01:02:44;;;;;;;13.23;8.52;;;;;;;7.73;84.12;97412.53;4937199;28;20031;-84
2021/04/26 01:05:14;;;;;;;17.92;8.80;;;;;;;7.63;84.94;97411.28;4942408;29;20038;-84
2021/04/26 01:07:40;;;;;;;17.45;8.70;;;;;;;7.71;84.19;97427.72;4933461;29;20058;-84
2021/04/26 01:10:09;;;;;;;19.33;9.15;;;;;;;7.77;84.46;97431.88;4945644;28;20914;-84
2021/04/26 01:13:10;;;;;;;14.23;8.25;;;;;;;7.72;84.39;97440.06;4932742;29;20030;-84
2021/04/26 01:16:09;;;;;;;15.98;8.73;;;;;;;7.58;85.05;97434.63;4936464;29;20047;-83
2021/04/26 01:18:59;;;;;;;18.40;8.68;;;;;;;7.51;85.94;97431.41;4938049;28;20067;-84
2021/04/26 01:21:43;;;;;;;16.33;8.50;;;;;;;7.47;86.27;97437.00;4929970;28;20042;-84
2021/04/26 01:24:40;;;;;;;14.48;8.30;;;;;;;7.30;87.50;97434.31;4955639;28;20486;-84
2021/04/26 01:27:18;;;;;;;14.00;8.10;;;;;;;7.33;88.53;97434.16;4958407;28;20471;-84
2021/04/26 01:30:04;;;;;;;18.00;8.50;;;;;;;7.31;87.85;97441.38;4947267;28;20054;-84
2021/04/26 01:32:34;;;;;;;14.60;8.60;;;;;;;7.29;89.32;97438.75;4929697;29;20027;-84
2021/04/26 01:35:00;;;;;;;16.77;9.00;;;;;;;7.18;89.47;97429.63;4934890;29;20028;-84
2021/04/26 01:37:27;;;;;;;17.55;8.70;;;;;;;7.15;89.71;97420.00;4942411;28;20030;-84
2021/04/26 01:39:53;;;;;;;13.82;8.45;;;;;;;7.12;91.00;97417.50;4939280;28;20088;-84
2021/04/26 01:42:20;;;;;;;20.10;8.95;;;;;;;7.17;91.12;97417.28;4938157;28;20027;-84
2021/04/26 01:44:45;;;;;;;15.77;9.27;;;;;;;7.15;91.77;97424.44;4950770;28;20027;-84
2021/04/26 01:47:11;;;;;;;16.38;8.68;;;;;;;7.11;92.27;97429.06;4937911;28;20166;-83
2021/04/26 01:49:38;;;;;;;16.65;8.60;;;;;;;7.03;92.46;97426.81;4955292;28;20033;-84
2021/04/26 01:52:06;;;;;;;17.50;8.98;;;;;;;7.00;92.68;97416.31;4923361;28;20039;-84
2021/04/26 01:54:32;;;;;;;20.30;9.38;;;;;;;7.02;92.63;97434.84;4939327;28;20038;-84
2021/04/26 01:56:58;;;;;;;17.77;8.45;;;;;;;6.92;92.60;97426.44;4955164;28;20030;-84
2021/04/26 01:59:24;;;;;;;18.13;8.98;;;;;;;6.87;92.59;97417.00;4939166;28;20042;-84
2021/04/26 02:01:51;;;;;;;14.20;8.57;;;;;;;6.93;93.46;97419.34;4923273;28;20023;-84
2021/04/26 02:04:19;;;;;;;18.30;8.50;;;;;;;6.85;92.89;97406.44;4939045;28;20034;-84
2021/04/26 02:06:45;;;;;;;20.25;9.82;;;;;;;6.85;92.76;97417.06;4939287;28;20485;-84
2021/04/26 02:09:10;;;;;;;14.95;8.82;;;;;;;6.85;92.83;97414.41;4938940;28;20121;-84
2021/04/26 02:11:36;;;;;;;14.85;9.20;;;;;;;6.82;93.69;97406.59;4942815;29;20063;-84
2021/04/26 02:14:02;;;;;;;14.80;9.10;;;;;;;6.82;92.98;97411.91;4950373;28;20039;-84
2021/04/26 02:16:28;;;;;;;17.33;10.05;;;;;;;6.85;93.11;97417.06;4947802;28;20034;-84
2021/04/26 02:18:53;;;;;;;14.93;8.57;;;;;;;6.74;93.34;97418.50;4954519;28;20041;-84
2021/04/26 02:21:19;;;;;;;16.45;9.00;;;;;;;6.56;93.85;97396.38;4938922;28;20062;-84
2021/04/26 02:23:44;;;;;;;21.58;9.93;;;;;;;6.56;94.56;97401.69;4938996;28;20564;-83
2021/04/26 02:26:10;;;;;;;19.50;9.50;;;;;;;6.63;94.33;97405.75;4953135;28;20053;-84
2021/04/26 02:28:35;;;;;;;16.10;8.65;;;;;;;6.54;94.29;97401.78;4951798;29;20097;-84
2021/04/26 02:31:01;;;;;;;20.15;9.18;;;;;;;6.46;94.29;97397.75;4951226;28;20042;-82
2021/04/26 02:33:35;;;;;;;20.15;8.93;;;;;;;6.45;94.63;97414.63;4932610;29;20411;-84
2021/04/26 02:36:09;;;;;;;21.27;8.77;;;;;;;6.36;94.09;97407.09;4955794;28;20125;-84
2021/04/26 02:38:38;;;;;;;28.77;12.80;;;;;;;6.29;94.04;97421.59;4942986;28;20400;-84
2021/04/26 02:41:09;;;;;;;22.02;12.73;;;;;;;6.20;95.36;97416.72;4958639;28;20026;-84
2021/04/26 02:43:37;;;;;;;26.25;13.10;;;;;;;6.31;94.95;97425.03;4942636;28;20117;-84
2021/04/26 02:46:03;;;;;;;24.67;13.93;;;;;;;6.24;95.13;97419.16;4954830;28;20037;-84
2021/04/26 02:48:29;;;;;;;28.27;14.68;;;;;;;6.25;94.89;97425.31;4948373;29;20065;-84
2021/04/26 02:50:57;;;;;;;47.00;13.20;;;;;;;6.15;95.50;97414.28;4966186;28;20522;-84
2021/04/26 02:53:29;;;;;;;28.80;13.15;;;;;;;6.16;95.21;97436.38;4939143;29;20035;-84
2021/04/26 02:56:00;;;;;;;27.13;13.65;;;;;;;6.09;95.67;97432.28;4938818;28;20034;-83
2021/04/26 02:58:26;;;;;;;28.48;12.27;;;;;;;5.98;95.59;97423.03;4919787;28;20027;-84
2021/04/26 03:00:52;;;;;;;24.00;13.57;;;;;;;5.96;96.06;97424.91;4951223;29;20422;-84
2021/04/26 03:03:18;;;;;;;24.10;14.70;;;;;;;5.98;96.30;97427.47;4956772;28;20038;-84
2021/04/26 03:05:44;;;;;;;30.20;15.60;;;;;;;6.02;96.84;97434.38;4969023;28;20034;-83
2021/04/26 03:08:10;;;;;;;32.83;15.93;;;;;;;5.97;97.00;97431.03;4936336;28;20086;-84
2021/04/26 03:10:36;;;;;;;30.80;15.13;;;;;;;5.93;96.99;97442.75;4942059;28;20058;-81
2021/04/26 03:13:02;;;;;;;24.85;13.75;;;;;;;5.89;97.44;97449.97;4933816;28;20070;-84
2021/04/26 03:15:29;;;;;;;40.17;16.20;;;;;;;5.92;98.10;97448.97;4941990;28;20580;-83
2021/04/26 03:17:55;;;;;;;41.53;17.50;;;;;;;5.89;98.27;97444.66;4946375;28;20030;-84
2021/04/26 03:20:21;;;;;;;41.38;15.63;;;;;;;5.87;99.07;97446.53;4955090;28;20461;-84
2021/04/26 03:22:48;;;;;;;22.45;12.60;;;;;;;5.86;97.77;97450.13;4942536;28;20029;-84
2021/04/26 03:25:16;;;;;;;24.23;10.65;;;;;;;5.82;96.92;97437.00;4941604;28;20057;-84
2021/04/26 03:27:43;;;;;;;23.88;11.45;;;;;;;5.83;96.41;97450.22;4941482;28;20035;-84
2021/04/26 03:30:11;;;;;;;21.63;10.95;;;;;;;5.79;96.07;97448.63;4955727;28;20464;-84
2021/04/26 03:32:36;;;;;;;21.38;11.13;;;;;;;5.80;96.54;97455.66;4941622;28;20030;-84
2021/04/26 03:35:02;;;;;;;34.05;13.65;;;;;;;5.78;97.57;97457.50;4941904;28;20035;-85
2021/04/26 03:37:28;;;;;;;35.97;14.13;;;;;;;5.78;98.20;97467.28;4946324;28;20042;-85
2021/04/26 03:39:54;;;;;;;23.33;14.05;;;;;;;5.78;98.54;97461.97;4942419;28;20422;-86
2021/04/26 03:42:20;;;;;;;38.22;13.55;;;;;;;5.80;97.79;97455.66;4925702;28;20125;-85
2021/04/26 03:44:47;;;;;;;27.67;13.70;;;;;;;5.91;98.25;97474.66;4927521;29;20106;-86
2021/04/26 03:47:13;;;;;;;29.67;11.90;;;;;;;5.86;96.82;97455.44;4953486;28;20053;-85
2021/04/26 03:49:39;;;;;;;30.52;11.30;;;;;;;5.84;97.15;97462.56;4954384;29;20475;-85
2021/04/26 03:52:05;;;;;;;23.50;10.95;;;;;;;5.90;96.43;97480.91;4922294;29;20063;-85
2021/04/26 03:54:31;;;;;;;28.38;10.75;;;;;;;5.84;96.22;97465.22;4942869;28;20058;-87
2021/04/26 03:56:57;;;;;;;41.70;10.95;;;;;;;5.92;96.37;97476.38;4973522;28;20085;-84
2021/04/26 03:59:22;;;;;;;24.55;10.57;;;;;;;5.89;96.76;97473.00;4942597;28;20130;-84
2021/04/26 04:01:48;;;;;;;22.00;9.68;;;;;;;6.02;95.39;97478.63;4935940;29;20078;-84
2021/04/26 04:07:32;;;;;;;23.27;10.18;;;;;;;6.16;94.30;97489.47;4878680;29;20048;-86
2021/04/26 04:09:58;;;;;;;16.83;10.30;;;;;;;6.19;94.88;97487.53;4895175;29;20052;-86
2021/04/26 04:12:23;;;;;;;20.52;10.93;;;;;;;6.24;94.52;97477.59;4936370;28;20047;-85
2021/04/26 04:14:49;;;;;;;22.00;10.48;;;;;;;6.37;95.18;97493.78;4947628;28;20075;-85
2021/04/26 04:17:15;;;;;;;18.23;10.57;;;;;;;6.50;95.20;97490.50;4932749;28;20030;-85
2021/04/26 04:19:41;;;;;;;40.47;12.07;;;;;;;6.78;92.85;97482.09;4947155;28;20026;-83
2021/04/26 04:22:07;;;;;;;30.63;12.25;;;;;;;6.91;90.66;97461.97;4945858;28;20046;-84
2021/04/26 04:24:33;;;;;;;32.45;12.13;;;;;;;7.21;89.78;97498.63;4948759;28;20034;-76
2021/04/26 04:26:58;;;;;;;30.02;13.68;;;;;;;7.26;88.69;97496.59;4958694;28;20391;-84
2021/04/26 04:29:24;;;;;;;26.98;13.07;;;;;;;7.33;87.98;97492.69;4963217;28;20035;-83
2021/04/26 04:31:50;;;;;;;33.17;14.30;;;;;;;7.33;88.19;97492.69;4934291;29;20467;-74
2021/04/26 04:34:15;;;;;;;34.17;14.85;;;;;;;7.30;87.70;97474.22;4968649;28;20036;-83
2021/04/26 04:36:41;;;;;;;29.23;14.52;;;;;;;7.56;87.18;97516.34;4922881;29;20254;-84
2021/04/26 04:39:06;;;;;;;31.17;12.43;;;;;;;7.61;85.60;97514.31;4939406;28;20043;-83
2021/04/26 04:41:32;;;;;;;26.75;14.52;;;;;;;7.74;86.02;97511.88;4944956;29;20110;-81
2021/04/26 04:43:59;;;;;;;32.38;16.52;;;;;;;8.01;84.67;97524.63;4941616;28;20050;-80
2021/04/26 04:46:25;;;;;;;38.55;17.33;;;;;;;8.07;83.11;97526.13;4936823;29;20505;-81
2021/04/26 04:48:51;;;;;;;48.05;23.80;;;;;;;8.18;83.12;97516.59;4942189;28;20031;-80
2021/04/26 04:51:17;;;;;;;120.05;54.97;;;;;;;8.36;82.94;97524.63;4930893;28;20082;-79
2021/04/26 04:53:42;;;;;;;52.53;22.60;;;;;;;8.51;82.62;97514.00;4959015;28;20030;-79
2021/04/26 04:56:08;;;;;;;44.35;20.60;;;;;;;8.63;81.38;97518.66;4932898;28;20098;-80
2021/04/26 04:58:33;;;;;;;38.83;21.15;;;;;;;8.83;81.59;97522.03;4930742;28;20066;-80
2021/04/26 05:00:59;;;;;;;44.03;20.83;;;;;;;9.20;79.75;97511.88;4933108;28;20034;-80
2021/04/26 05:03:25;;;;;;;51.10;21.13;;;;;;;9.78;77.40;97527.19;4953257;28;20569;-79
2021/04/26 05:05:51;;;;;;;46.90;21.90;;;;;;;10.25;75.04;97527.03;4935081;29;20110;-80
2021/04/26 05:08:16;;;;;;;46.13;23.17;;;;;;;10.95;72.29;97534.19;4940293;28;20031;-79
2021/04/26 05:10:42;;;;;;;42.88;20.27;;;;;;;11.56;67.62;97519.50;4946472;28;20042;-80
2021/04/26 05:13:08;;;;;;;52.80;20.98;;;;;;;11.93;66.58;97524.16;4940862;28;20075;-81
2021/04/26 05:15:34;;;;;;;39.42;19.52;;;;;;;12.61;62.72;97537.31;4939866;28;20057;-81
2021/04/26 05:17:59;;;;;;;47.17;21.55;;;;;;;13.83;58.97;97533.69;4955567;28;20482;-80
2021/04/26 05:20:25;;;;;;;64.22;27.20;;;;;;;14.94;55.29;97531.31;4939403;28;20117;-79
2021/04/26 05:22:51;;;;;;;44.83;24.10;;;;;;;16.11;50.11;97540.53;4932310;29;20079;-79
2021/04/26 05:25:16;;;;;;;48.33;23.35;;;;;;;16.73;47.71;97544.13;4923141;28;20034;-79
2021/04/26 05:27:42;;;;;;;44.10;23.35;;;;;;;18.12;44.28;97546.06;4966214;28;20050;-80
2021/04/26 05:30:09;;;;;;;44.53;21.73;;;;;;;18.47;42.65;97554.44;4969767;28;20066;-80
2021/04/26 05:32:35;;;;;;;33.72;18.25;;;;;;;19.47;40.53;97544.84;4945591;29;20031;-80
2021/04/26 05:35:01;;;;;;;36.63;18.67;;;;;;;20.73;38.53;97561.97;4951642;28;20050;-79
2021/04/26 05:37:26;;;;;;;29.38;16.88;;;;;;;21.91;35.00;97547.56;4944254;29;20033;-79
2021/04/26 05:39:52;;;;;;;30.35;17.23;;;;;;;22.64;33.94;97550.44;4952123;29;20034;-80
2021/04/26 05:42:17;;;;;;;36.88;20.20;;;;;;;23.76;31.77;97548.56;4938990;28;20030;-79
2021/04/26 05:44:43;;;;;;;28.85;16.20;;;;;;;23.43;31.64;97549.69;4939564;28;20026;-76
2021/04/26 05:47:08;;;;;;;32.05;15.85;;;;;;;24.03;30.87;97545.34;4940232;28;20603;-76
2021/04/26 05:49:34;;;;;;;29.30;14.90;;;;;;;24.58;29.94;97545.19;4966346;28;20470;-76
2021/04/26 05:51:59;;;;;;;30.48;14.60;;;;;;;24.45;29.90;97541.38;4955675;28;20077;-78
2021/04/26 05:54:25;;;;;;;26.50;13.20;;;;;;;24.31;30.02;97548.47;4932855;28;20034;-76
2021/04/26 05:56:51;;;;;;;27.33;12.93;;;;;;;25.52;28.62;97543.88;4948074;28;20089;-76
2021/04/26 05:59:16;;;;;;;18.83;11.20;;;;;;;22.75;30.49;97531.03;4973767;28;20490;-76
2021/04/26 06:01:42;;;;;;;20.80;11.43;;;;;;;23.29;31.04;97548.50;4943142;28;20030;-76
2021/04/26 06:04:07;;;;;;;26.80;12.60;;;;;;;24.19;30.31;97545.28;4940489;28;20038;-77
2021/04/26 06:06:33;;;;;;;26.50;15.20;;;;;;;24.78;28.91;97540.09;4956769;28;20483;-77
2021/04/26 06:08:59;;;;;;;25.13;13.60;;;;;;;24.79;29.27;97541.78;4956357;28;20052;-77
2021/04/26 06:11:24;;;;;;;25.00;14.95;;;;;;;25.18;28.83;97531.53;4947357;28;20458;-77
2021/04/26 06:13:50;;;;;;;21.73;13.50;;;;;;;25.61;27.89;97540.00;4939740;28;20027;-77
2021/04/26 06:16:16;;;;;;;24.75;12.48;;;;;;;26.50;27.64;97549.78;4956029;28;20023;-77
2021/04/26 06:18:41;;;;;;;18.60;11.48;;;;;;;25.07;28.70;97531.97;4951240;29;20059;-77
2021/04/26 06:21:07;;;;;;;20.67;10.60;;;;;;;24.71;29.25;97547.31;4937126;28;20027;-77
2021/04/26 06:23:33;;;;;;;23.58;9.70;;;;;;;25.40;28.36;97529.75;4936282;29;20020;-77
2021/04/26 06:25:58;;;;;;;14.82;9.68;;;;;;;25.13;28.23;97533.94;4952643;28;20480;-77
2021/04/26 06:28:24;;;;;;;16.55;9.02;;;;;;;25.91;27.31;97538.91;4930559;28;20038;-77
2021/04/26 06:30:49;;;;;;;21.45;10.27;;;;;;;26.59;26.43;97538.50;4929964;28;20062;-77
2021/04/26 06:33:18;;;;;;;21.08;12.48;;;;;;;26.06;27.95;97530.66;4939449;28;20449;-77
2021/04/26 06:35:49;;;;;;;15.57;10.02;;;;;;;26.37;27.08;97537.63;4950160;28;20109;-77
2021/04/26 06:38:14;;;;;;;21.17;9.63;;;;;;;27.08;26.19;97537.69;4956231;28;20077;-77
2021/04/26 06:40:41;;;;;;;28.45;9.52;;;;;;;27.33;25.99;97537.06;4920657;29;20542;-77
2021/04/26 06:43:07;;;;;;;42.85;13.90;;;;;;;27.16;26.20;97516.44;4936286;29;20074;-78
2021/04/26 06:45:33;;;;;;;21.88;10.00;;;;;;;24.98;28.37;97529.50;4931072;28;20035;-78
2021/04/26 06:48:02;;;;;;;18.58;10.00;;;;;;;25.43;28.09;97544.97;4924466;29;20034;-77
2021/04/26 06:50:27;;;;;;;14.85;8.80;;;;;;;27.02;25.81;97522.88;4934903;29;20062;-77
2021/04/26 06:52:55;;;;;;;24.42;9.10;;;;;;;27.03;25.41;97513.59;4936042;29;20039;-77
2021/04/26 06:55:21;;;;;;;16.98;9.45;;;;;;;27.84;24.68;97512.88;4946411;28;20034;-77
2021/04/26 06:57:47;;;;;;;27.48;9.65;;;;;;;28.81;23.81;97515.34;4938749;28;20041;-77
2021/04/26 07:00:13;;;;;;;33.70;21.92;;;;;;;28.02;24.43;97515.91;4932179;28;20039;-77
2021/04/26 07:02:39;;;;;;;14.73;9.10;;;;;;;27.83;24.74;97516.69;4939870;28;20137;-78
2021/04/26 07:05:07;;;;;;;23.30;10.05;;;;;;;27.76;25.01;97515.78;4948295;28;20035;-77
2021/04/26 07:07:33;;;;;;;16.77;7.93;;;;;;;27.02;25.76;97514.63;4939266;28;20097;-77
2021/04/26 07:09:58;;;;;;;16.58;9.80;;;;;;;28.05;24.67;97520.22;4955950;28;20035;-77
2021/04/26 07:12:24;;;;;;;19.73;9.57;;;;;;;28.33;25.15;97523.66;4954776;28;20033;-77
2021/04/26 07:14:50;;;;;;;20.27;8.55;;;;;;;29.13;23.58;97519.19;4931324;28;20030;-79
2021/04/26 07:17:15;;;;;;;16.95;8.95;;;;;;;29.36;23.65;97512.19;4939544;28;20459;-77
2021/04/26 07:19:41;;;;;;;19.20;8.95;;;;;;;30.05;22.71;97514.38;4931593;29;20502;-78
2021/04/26 07:22:06;;;;;;;24.17;8.52;;;;;;;31.01;22.37;97509.63;4958987;28;20027;-78
2021/04/26 07:24:32;;;;;;;11.20;6.55;;;;;;;30.27;22.18;97501.94;4942807;28;20045;-78
2021/04/26 07:27:01;;;;;;;24.15;6.65;;;;;;;30.35;21.92;97504.47;4958673;28;20030;-78
2021/04/26 07:29:26;;;;;;;12.00;6.13;;;;;;;30.37;22.65;97496.78;4942029;28;20039;-78
2021/04/26 07:31:52;;;;;;;13.32;6.05;;;;;;;30.24;22.15;97494.09;4953022;29;20029;-78
2021/04/26 07:34:17;;;;;;;13.95;6.65;;;;;;;30.98;22.23;97501.75;4947077;28;20035;-78
2021/04/26 07:36:43;;;;;;;10.93;6.07;;;;;;;28.90;21.78;97497.53;4933688;28;20479;-77
2021/04/26 07:39:09;;;;;;;40.17;7.40;;;;;;;29.36;21.66;97498.41;4957691;28;20085;-77
2021/04/26 07:41:35;;;;;;;11.35;6.28;;;;;;;30.91;21.31;97512.00;4973471;28;20479;-77
2021/04/26 07:44:01;;;;;;;8.68;5.47;;;;;;;31.43;19.24;97503.28;4941050;28;20058;-77
2021/04/26 07:46:26;;;;;;;54.90;12.80;;;;;;;31.22;19.29;97500.94;4933142;28;20462;-77
2021/04/26 07:48:52;;;;;;;27.85;8.82;;;;;;;30.98;19.09;97493.44;4941321;28;20046;-77
2021/04/26 07:51:17;;;;;;;409.05;68.45;;;;;;;30.54;21.46;97516.50;4941052;28;20116;-77
2021/04/26 07:53:43;;;;;;;18.52;6.07;;;;;;;30.91;18.86;97514.75;4949591;28;20062;-78
2021/04/26 07:56:09;;;;;;;10.75;4.97;;;;;;;31.09;19.24;97512.09;4957732;28;20038;-77
2021/04/26 07:58:34;;;;;;;9.10;4.70;;;;;;;30.87;18.42;97491.41;4950582;28;20453;-78
2021/04/26 08:01:00;;;;;;;11.57;6.47;;;;;;;31.09;17.14;97489.97;4973458;28;20402;-77
2021/04/26 08:03:26;;;;;;;9.65;4.80;;;;;;;31.36;18.16;97488.66;4933349;28;20074;-77
2021/04/26 08:05:52;;;;;;;6.55;5.47;;;;;;;30.10;19.13;97490.56;4929537;29;20197;-77
2021/04/26 08:08:18;;;;;;;10.05;3.80;;;;;;;32.10;17.10;97484.91;4954023;28;20041;-77
2021/04/26 08:10:44;;;;;;;12.38;4.40;;;;;;;32.37;17.47;97489.00;4925146;28;20109;-77
2021/04/26 08:13:09;;;;;;;8.32;3.60;;;;;;;31.28;14.73;97455.78;4927203;29;20094;-77
2021/04/26 08:15:35;;;;;;;9.43;3.72;;;;;;;30.46;16.09;97459.59;4945888;28;20035;-77
2021/04/26 08:18:01;;;;;;;13.80;4.35;;;;;;;30.78;16.32;97448.53;4965164;28;20018;-78
2021/04/26 08:20:27;;;;;;;5.13;4.28;;;;;;;29.21;16.86;97439.88;4940931;28;20109;-76
2021/04/26 08:22:55;;;;;;;5.05;3.70;;;;;;;29.82;16.33;97436.78;4954136;29;20510;-77
2021/04/26 08:25:24;;;;;;;17.75;9.10;;;;;;;28.89;15.64;97432.47;4960149;28;20498;-77
2021/04/26 08:27:49;;;;;;;13.95;5.57;;;;;;;30.88;14.74;97444.22;4957463;28;20118;-77
2021/04/26 08:30:16;;;;;;;11.05;7.97;;;;;;;30.87;15.68;97430.59;4944333;28;20034;-77
2021/04/26 08:32:42;;;;;;;8.25;4.90;;;;;;;31.37;15.28;97442.50;4940118;28;20418;-77
2021/04/26 08:35:08;;;;;;;37.58;24.35;;;;;;;31.39;15.47;97438.41;4940454;28;20045;-77
2021/04/26 08:37:34;;;;;;;14.07;6.65;;;;;;;31.60;15.50;97445.44;4955360;28;20062;-77
2021/04/26 08:40:00;;;;;;;13.32;8.05;;;;;;;31.75;15.20;97445.91;4956782;28;20038;-77
2021/04/26 08:42:26;;;;;;;8.55;5.53;;;;;;;32.26;14.44;97442.75;4921565;29;20071;-77
2021/04/26 08:44:52;;;;;;;11.98;5.50;;;;;;;32.27;14.65;97444.41;4924835;28;20069;-77
2021/04/26 08:47:21;;;;;;;7.65;4.72;;;;;;;33.04;14.03;97434.28;4972464;28;20552;-77
2021/04/26 08:49:47;;;;;;;10.07;4.72;;;;;;;34.03;13.55;97447.13;4947931;28;20050;-76
2021/04/26 08:52:13;;;;;;;10.23;4.63;;;;;;;34.24;14.50;97446.53;4934090;29;20031;-76
2021/04/26 08:54:39;;;;;;;14.02;7.28;;;;;;;34.95;14.45;97445.09;4954427;28;20486;-75
2021/04/26 08:57:04;;;;;;;9.40;4.20;;;;;;;34.77;13.86;97447.00;4940173;28;20026;-76
2021/04/26 08:59:30;;;;;;;5.55;3.55;;;;;;;34.37;14.52;97437.88;4952960;29;20031;-76
2021/04/26 09:02:07;;;;;;;12.18;3.97;;;;;;;33.40;14.97;97439.63;4940196;28;20549;-77
2021/04/26 09:04:34;;;;;;;8.73;4.05;;;;;;;33.57;14.88;97429.47;4940425;28;20033;-76
2021/04/26 09:07:03;;;;;;;8.88;4.30;;;;;;;33.40;14.89;97438.78;4940033;28;20038;-76
2021/04/26 09:09:52;;;;;;;9.55;4.20;;;;;;;33.27;14.12;97437.09;4940171;28;20035;-76
2021/04/26 09:12:31;;;;;;;7.13;4.07;;;;;;;32.82;14.83;97428.47;4955900;28;20403;-76
2021/04/26 09:15:00;;;;;;;6.85;4.40;;;;;;;32.53;13.19;97421.88;4932282;28;20030;-77
2021/04/26 09:17:38;;;;;;;5.25;3.50;;;;;;;31.66;13.47;97414.94;4939827;28;20026;-78
2021/04/26 09:20:16;;;;;;;15.93;5.07;;;;;;;33.36;12.96;97419.00;4939728;28;20027;-75
2021/04/26 09:22:48;;;;;;;8.88;4.43;;;;;;;33.52;12.91;97415.50;4973024;28;20089;-75
2021/04/26 09:25:32;;;;;;;7.80;3.70;;;;;;;33.95;13.29;97428.09;4974310;28;20110;-77
2021/04/26 09:28:19;;;;;;;8.40;3.80;;;;;;;34.83;13.79;97428.47;4945153;29;20027;-76
2021/04/26 09:30:45;;;;;;;5.70;3.40;;;;;;;35.34;13.09;97424.59;4937615;28;20070;-77
2021/04/26 09:33:37;;;;;;;8.02;3.22;;;;;;;34.77;12.85;97413.63;4955652;28;20062;-77
2021/04/26 09:36:04;;;;;;;;;;;;;;;35.46;11.65;97411.44;4954087;29;20418;-77
2021/04/26 09:38:33;;;;;;;7.05;3.85;;;;;;;35.02;11.99;97398.47;4936346;29;20009;-77
2021/04/26 09:41:17;;;;;;;4.93;3.65;;;;;;;35.07;12.28;97404.13;4938326;28;20102;-74
2021/04/26 09:43:53;;;;;;;5.82;3.90;;;;;;;35.96;11.03;97402.09;4947221;28;20039;-75
2021/04/26 09:46:22;;;;;;;8.68;3.78;;;;;;;36.39;11.60;97411.25;4971491;28;20085;-75
2021/04/26 09:48:48;;;;;;;4.30;3.17;;;;;;;37.10;10.11;97405.59;4939244;28;20061;-76
2021/04/26 09:51:20;;;;;;;7.88;3.50;;;;;;;36.14;10.53;97393.44;4955055;28;20039;-78
2021/04/26 09:53:53;;;;;;;5.22;3.10;;;;;;;34.77;10.95;97380.25;4939469;28;20113;-76
2021/04/26 09:56:30;;;;;;;12.50;3.80;;;;;;;34.79;11.21;97385.59;4955597;28;20035;-75
2021/04/26 09:59:00;;;;;;;5.80;3.60;;;;;;;35.50;11.91;97389.50;4937103;28;20494;-75
2021/04/26 10:01:26;;;;;;;7.05;2.85;;;;;;;35.68;10.53;97392.84;4955638;28;20033;-75
2021/04/26 10:03:53;;;;;;;13.95;5.75;;;;;;;34.76;11.42;97374.97;4939353;28;20097;-75
2021/04/26 10:06:20;;;;;;;6.10;3.38;;;;;;;35.09;12.19;97382.47;4955058;28;20039;-76
2021/04/26 10:08:47;;;;;;;8.13;2.95;;;;;;;35.52;11.11;97373.38;4972491;28;20030;-77
2021/04/26 10:11:13;;;;;;;11.07;3.42;;;;;;;34.80;11.20;97362.22;4939286;28;20030;-76
2021/04/26 10:13:39;;;;;;;5.80;2.88;;;;;;;35.63;11.99;97384.41;4939314;28;20062;-77
2021/04/26 10:16:06;;;;;;;7.03;3.67;;;;;;;36.39;12.28;97388.16;4971102;28;20498;-77
2021/04/26 10:18:35;;;;;;;5.55;3.25;;;;;;;36.81;11.18;97379.91;4939136;28;20065;-76
2021/04/26 10:21:02;;;;;;;5.82;2.90;;;;;;;36.68;11.64;97375.63;4938940;28;20034;-77
2021/04/26 10:23:34;;;;;;;6.45;3.35;;;;;;;37.19;10.51;97364.91;4939147;28;20026;-77
2021/04/26 10:26:00;;;;;;;3.60;2.60;;;;;;;37.09;10.92;97362.03;4954793;28;20490;-77
2021/04/26 10:28:30;;;;;;;8.55;2.92;;;;;;;37.21;11.42;97366.31;4955057;28;20490;-76
2021/04/26 10:30:59;;;;;;;6.70;3.67;;;;;;;37.90;11.08;97369.00;4952911;28;20070;-77
2021/04/26 10:33:25;;;;;;;4.55;3.17;;;;;;;37.03;11.26;97354.75;4966723;28;20085;-76
2021/04/26 10:35:51;;;;;;;12.75;3.50;;;;;;;36.73;11.68;97352.53;4954829;28;20030;-77
2021/04/26 10:38:44;;;;;;;9.93;3.22;;;;;;;35.85;11.11;97346.28;4954966;28;20023;-77
2021/04/26 10:41:16;;;;;;;7.65;3.15;;;;;;;33.95;12.57;97333.69;4946450;28;20070;-77
2021/04/26 10:43:50;;;;;;;6.05;3.53;;;;;;;34.43;12.82;97334.06;4938915;28;20118;-77
2021/04/26 10:46:16;;;;;;;4.15;2.92;;;;;;;33.61;12.71;97324.41;4954853;28;20554;-76
2021/04/26 10:49:03;;;;;;;12.25;3.30;;;;;;;34.85;12.15;97323.41;4972232;28;20030;-76
2021/04/26 10:51:32;;;;;;;6.03;3.28;;;;;;;36.33;12.30;97330.66;4954447;28;20058;-77
2021/04/26 10:53:57;;;;;;;5.03;3.17;;;;;;;36.19;11.33;97318.25;4941516;28;20093;-77
2021/04/26 10:56:31;;;;;;;5.82;3.13;;;;;;;36.28;11.34;97313.88;4958465;28;20034;-78
2021/04/26 10:59:15;;;;;;;7.35;3.40;;;;;;;37.84;10.92;97306.59;4940739;28;20486;-78
2021/04/26 11:01:48;;;;;;;3.78;2.80;;;;;;;37.78;10.82;97302.13;4958305;28;20039;-77
2021/04/26 11:04:15;;;;;;;9.00;3.35;;;;;;;37.39;10.80;97303.59;4926624;28;20030;-77
2021/04/26 11:06:59;;;;;;;15.32;3.42;;;;;;;35.21;12.30;97294.19;4946406;28;20027;-77
2021/04/26 11:09:35;;;;;;;5.40;3.38;;;;;;;35.62;11.42;97299.22;4942134;28;20035;-77
2021/04/26 11:12:02;;;;;;;9.70;3.20;;;;;;;34.94;11.70;97290.44;4942039;28;20034;-77
2021/04/26 11:14:29;;;;;;;16.63;4.07;;;;;;;36.50;12.17;97295.13;4929325;29;20495;-77
2021/04/26 11:17:03;;;;;;;7.38;3.20;;;;;;;37.56;12.03;97298.72;4939449;28;20027;-77
2021/04/26 11:19:30;;;;;;;8.85;2.92;;;;;;;37.72;11.19;97294.84;4958180;28;20035;-77
2021/04/26 11:21:57;;;;;;;3.63;2.80;;;;;;;37.62;10.05;97286.44;4941756;28;20097;-77
2021/04/26 11:24:25;;;;;;;4.32;2.85;;;;;;;36.52;11.51;97283.72;4942002;28;20033;-77
2021/04/26 11:27:13;;;;;;;9.45;3.75;;;;;;;36.07;12.86;97284.13;4975057;28;20061;-77
2021/04/26 11:29:43;;;;;;;6.63;3.97;;;;;;;35.27;11.53;97271.75;4949981;28;20113;-76
2021/04/26 11:32:10;;;;;;;6.72;3.78;;;;;;;35.49;11.67;97265.34;4957470;28;20050;-77
2021/04/26 11:35:01;;;;;;;8.88;3.85;;;;;;;34.69;13.04;97255.59;4936071;29;20031;-76